createdAt,value
2017-12-14T00:01:45.047Z,98492.89
2017-12-14T00:04:12.637Z,98493.36
2017-12-14T00:06:40.257Z,98496.09
2017-12-14T00:09:07.884Z,98493.72
2017-12-14T00:11:35.514Z,98492.25
2017-12-14T00:14:03.176Z,98486.81
2017-12-14T00:16:30.766Z,98496.52
2017-12-14T00:18:58.376Z,98493.52
2017-12-14T00:21:25.958Z,98498.09
2017-12-14T00:23:53.574Z,98498.91
2017-12-14T00:26:21.168Z,98509.05
2017-12-14T00:28:48.894Z,98502.43
2017-12-14T00:31:16.515Z,98499.52
2017-12-14T00:33:44.172Z,98497.84
2017-12-14T00:36:11.790Z,98504.08
2017-12-14T00:38:39.407Z,98502.03
2017-12-14T00:41:07.070Z,98498.22
2017-12-14T00:43:34.643Z,98486.23
2017-12-14T00:46:02.245Z,98472.26
2017-12-14T00:48:29.825Z,98453.17
2017-12-14T00:50:57.474Z,98460.88
2017-12-14T00:53:25.080Z,98461.41
2017-12-14T00:55:52.699Z,98457.83
2017-12-14T00:58:20.273Z,98476.22
2017-12-14T01:00:47.963Z,98474.34
2017-12-14T01:03:15.519Z,98464.64
2017-12-14T01:05:43.122Z,98464.15
2017-12-14T01:08:10.819Z,98459.77
2017-12-14T01:10:38.428Z,98462.97
2017-12-14T01:13:06.011Z,98469.90
2017-12-14T01:15:33.598Z,98479.08
2017-12-14T01:18:01.218Z,98484.48
2017-12-14T01:20:28.822Z,98478.64
2017-12-14T01:22:56.491Z,98471.66
2017-12-14T01:25:24.074Z,98459.19
2017-12-14T01:27:51.686Z,98439.70
2017-12-14T01:30:19.270Z,98441.47
2017-12-14T01:32:46.882Z,98435.52
2017-12-14T01:35:14.471Z,98443.29
2017-12-14T01:37:42.114Z,98444.33
2017-12-14T01:40:09.694Z,98452.55
2017-12-14T01:42:37.306Z,98459.54
2017-12-14T01:45:04.889Z,98454.72
2017-12-14T01:47:32.497Z,98448.86
2017-12-14T01:50:00.074Z,98441.44
2017-12-14T01:52:27.741Z,98434.39
2017-12-14T01:54:55.325Z,98436.53
2017-12-14T01:57:22.954Z,98427.20
2017-12-14T01:59:50.540Z,98424.92
2017-12-14T02:02:18.145Z,98421.69
2017-12-14T02:04:45.725Z,98416.81
2017-12-14T02:07:13.342Z,98418.54
2017-12-14T02:09:40.926Z,98407.92
2017-12-14T02:12:08.674Z,98407.40
2017-12-14T02:14:36.272Z,98401.54
2017-12-14T02:17:03.870Z,98396.89
2017-12-14T02:19:31.438Z,98394.13
2017-12-14T02:21:59.018Z,98396.23
2017-12-14T02:24:26.634Z,98391.72
2017-12-14T02:26:54.219Z,98395.53
2017-12-14T02:29:21.842Z,98384.69
2017-12-14T02:31:49.427Z,98389.71
2017-12-14T02:34:17.031Z,98381.34
2017-12-14T02:36:44.625Z,98385.92
2017-12-14T02:39:12.234Z,98380.86
2017-12-14T02:41:39.816Z,98382.12
2017-12-14T02:44:07.431Z,98381.69
2017-12-14T02:46:35.108Z,98394.15
2017-12-14T02:49:02.742Z,98402.81
2017-12-14T02:51:30.331Z,98418.54
2017-12-14T02:53:58.058Z,98431.45
2017-12-14T02:56:25.631Z,98445.16
2017-12-14T02:58:53.242Z,98450.11
2017-12-14T03:01:20.842Z,98468.07
2017-12-14T03:03:55.077Z,98463.43
2017-12-14T03:06:22.650Z,98481.92
2017-12-14T03:08:50.264Z,98485.79
2017-12-14T03:11:17.870Z,98500.84
2017-12-14T03:13:45.492Z,98486.94
2017-12-14T03:16:13.099Z,98488.81
2017-12-14T03:18:40.794Z,98480.38
2017-12-14T03:21:08.469Z,98474.72
2017-12-14T03:23:36.197Z,98465.47
2017-12-14T03:26:03.846Z,98459.14
2017-12-14T03:28:31.543Z,98463.06
2017-12-14T03:30:59.207Z,98446.93
2017-12-14T03:33:26.883Z,98450.76
2017-12-14T03:35:54.549Z,98450.89
2017-12-14T03:38:22.291Z,98443.73
2017-12-14T03:40:49.941Z,98451.52
2017-12-14T03:43:17.609Z,98449.91
2017-12-14T03:45:45.319Z,98454.28
2017-12-14T03:48:13.009Z,98448.94
2017-12-14T03:50:40.663Z,98452.76
2017-12-14T03:53:08.355Z,98457.76
2017-12-14T03:55:36.003Z,98454.53
2017-12-14T03:58:03.756Z,98461.89
2017-12-14T04:00:31.402Z,98461.59
2017-12-14T04:02:58.991Z,98489.85
2017-12-14T04:05:26.604Z,98470.19
2017-12-14T04:07:54.261Z,98456.08
2017-12-14T04:10:21.951Z,98478.82
2017-12-14T04:12:49.537Z,98466.39
2017-12-14T04:15:17.148Z,98474.58
2017-12-14T04:17:44.806Z,98488.08
2017-12-14T04:20:12.443Z,98478.45
2017-12-14T04:22:39.999Z,98502.22
2017-12-14T04:25:07.598Z,98484.32
2017-12-14T04:27:35.226Z,98507.41
2017-12-14T04:30:02.818Z,98506.52
2017-12-14T04:32:30.406Z,98517.23
2017-12-14T04:34:58.045Z,98520.95
2017-12-14T04:37:25.624Z,98514.48
2017-12-14T04:39:53.340Z,98519.01
2017-12-14T04:42:20.919Z,98539.53
2017-12-14T04:44:48.670Z,98517.15
2017-12-14T04:47:16.231Z,98517.69
2017-12-14T04:49:43.852Z,98532.73
2017-12-14T04:52:11.465Z,98517.14
2017-12-14T04:54:39.042Z,98573.20
2017-12-14T04:57:06.642Z,98566.64
2017-12-14T04:59:34.251Z,98565.20
2017-12-14T05:02:01.885Z,98572.77
2017-12-14T05:04:29.531Z,98561.79
2017-12-14T05:06:57.233Z,98567.64
2017-12-14T05:09:24.807Z,98568.31
2017-12-14T05:11:52.522Z,98573.34
2017-12-14T05:14:20.167Z,98598.63
2017-12-14T05:16:47.854Z,98644.80
2017-12-14T05:19:15.414Z,98586.86
2017-12-14T05:21:43.016Z,98649.59
2017-12-14T05:24:10.659Z,98613.61
2017-12-14T05:26:38.333Z,98635.56
2017-12-14T05:29:06.005Z,98634.91
2017-12-14T05:31:33.690Z,98635.30
2017-12-14T05:34:01.421Z,98651.40
2017-12-14T05:36:29.142Z,98663.29
2017-12-14T05:38:56.902Z,98659.20
2017-12-14T05:41:24.687Z,98661.84
2017-12-14T05:43:52.378Z,98664.63
2017-12-14T05:46:20.135Z,98707.44
2017-12-14T05:48:47.809Z,98685.52
2017-12-14T05:51:15.499Z,98699.00
2017-12-14T05:53:43.155Z,98702.97
2017-12-14T05:56:10.817Z,98707.06
2017-12-14T05:58:38.555Z,98707.72
2017-12-14T06:01:06.214Z,98723.59
2017-12-14T06:03:33.929Z,98714.08
2017-12-14T06:06:01.618Z,98711.87
2017-12-14T06:08:29.259Z,98706.19
2017-12-14T06:10:56.946Z,98727.33
2017-12-14T06:13:24.619Z,98739.93
2017-12-14T06:15:52.274Z,98746.15
2017-12-14T06:18:19.979Z,98756.73
2017-12-14T06:20:47.669Z,98769.56
2017-12-14T06:23:15.322Z,98768.36
2017-12-14T06:25:43.034Z,98780.42
2017-12-14T06:28:10.683Z,98783.45
2017-12-14T06:30:38.257Z,98788.75
2017-12-14T06:33:05.946Z,98792.61
2017-12-14T06:35:33.670Z,98797.11
2017-12-14T06:38:01.434Z,98812.61
2017-12-14T06:40:29.155Z,98821.59
2017-12-14T06:42:56.895Z,98818.00
2017-12-14T06:45:24.625Z,98819.72
2017-12-14T06:47:52.362Z,98822.89
2017-12-14T06:50:20.014Z,98843.70
2017-12-14T06:52:47.782Z,98833.89
2017-12-14T06:55:15.354Z,98831.34
2017-12-14T06:57:42.964Z,98838.92
2017-12-14T07:00:10.567Z,98842.72
2017-12-14T07:02:38.221Z,98843.78
2017-12-14T07:05:05.831Z,98852.00
2017-12-14T07:07:33.466Z,98847.61
2017-12-14T07:10:01.151Z,98850.34
2017-12-14T07:12:28.750Z,98855.56
2017-12-14T07:14:56.354Z,98862.88
2017-12-14T07:17:23.947Z,98868.58
2017-12-14T07:19:51.577Z,98868.04
2017-12-14T07:22:19.174Z,98859.44
2017-12-14T07:24:46.803Z,98876.53
2017-12-14T07:27:14.394Z,98880.37
2017-12-14T07:29:41.994Z,98876.39
2017-12-14T07:32:09.574Z,98877.59
2017-12-14T07:34:37.216Z,98899.47
2017-12-14T07:37:04.817Z,98884.22
2017-12-14T07:39:32.434Z,98883.56
2017-12-14T07:42:00.002Z,98881.29
2017-12-14T07:44:29.194Z,98886.73
2017-12-14T07:47:08.449Z,98882.11
2017-12-14T07:49:36.065Z,98881.56
2017-12-14T07:52:03.651Z,98887.00
2017-12-14T07:54:31.216Z,98878.50
2017-12-14T07:56:58.831Z,98873.34
2017-12-14T07:59:26.406Z,98879.97
2017-12-14T08:01:54.020Z,98872.80
2017-12-14T08:04:21.601Z,98864.57
2017-12-14T08:06:49.230Z,98864.20
2017-12-14T08:09:16.825Z,98880.61
2017-12-14T08:11:44.423Z,98874.53
2017-12-14T08:14:11.990Z,98862.88
2017-12-14T08:16:39.642Z,98869.73
2017-12-14T08:19:07.315Z,98872.80
2017-12-14T08:21:34.966Z,98881.39
2017-12-14T08:24:02.573Z,98887.09
2017-12-14T08:26:30.170Z,98888.25
2017-12-14T08:28:57.788Z,98889.30
2017-12-14T08:31:25.374Z,98880.02
2017-12-14T08:33:53.006Z,98880.56
2017-12-14T08:36:20.630Z,98881.48
2017-12-14T08:38:48.246Z,98876.16
2017-12-14T08:41:15.826Z,98884.77
2017-12-14T08:43:43.443Z,98893.13
2017-12-14T08:46:11.094Z,98899.75
2017-12-14T08:48:38.711Z,98894.17
2017-12-14T08:51:06.294Z,98903.32
2017-12-14T08:53:33.894Z,98906.65
2017-12-14T08:56:01.486Z,98912.61
2017-12-14T08:58:29.103Z,98912.09
2017-12-14T09:00:56.675Z,98915.66
2017-12-14T09:03:24.285Z,98918.68
2017-12-14T09:05:51.853Z,98927.55
2017-12-14T09:08:19.494Z,98927.07
2017-12-14T09:10:47.083Z,98924.66
2017-12-14T09:13:14.658Z,98917.64
2017-12-14T09:15:42.266Z,98917.64
2017-12-14T09:18:09.830Z,98919.47
2017-12-14T09:20:37.438Z,98931.41
2017-12-14T09:23:05.030Z,98934.47
2017-12-14T09:25:32.642Z,98933.00
2017-12-14T09:28:00.231Z,98939.88
2017-12-14T09:30:27.841Z,98930.30
2017-12-14T09:32:55.411Z,98952.48
2017-12-14T09:35:23.049Z,98941.18
2017-12-14T09:37:50.623Z,98942.23
2017-12-14T09:40:18.261Z,98944.33
2017-12-14T09:42:45.898Z,98955.21
2017-12-14T09:45:13.547Z,98962.89
2017-12-14T09:47:41.119Z,98962.34
2017-12-14T09:50:08.785Z,98974.96
2017-12-14T09:52:36.351Z,98980.09
2017-12-14T09:55:03.998Z,98966.29
2017-12-14T09:57:31.586Z,98965.25
2017-12-14T09:59:59.191Z,98974.14
2017-12-14T10:02:26.766Z,98964.30
2017-12-14T10:04:54.438Z,98970.94
2017-12-14T10:07:22.051Z,98974.45
2017-12-14T10:09:49.643Z,98960.80
2017-12-14T10:12:17.221Z,98966.95
2017-12-14T10:14:44.829Z,98951.44
2017-12-14T10:17:13.205Z,98958.45
2017-12-14T10:19:40.894Z,98965.92
2017-12-14T10:22:08.597Z,98957.72
2017-12-14T10:24:36.251Z,98958.64
2017-12-14T10:27:03.865Z,98954.80
2017-12-14T10:29:31.474Z,98964.08
2017-12-14T10:31:59.078Z,98948.02
2017-12-14T10:34:26.703Z,98931.55
2017-12-14T10:36:54.286Z,98937.41
2017-12-14T10:39:21.906Z,98942.72
2017-12-14T10:41:49.540Z,98939.92
2017-12-14T10:44:17.190Z,98938.97
2017-12-14T10:46:44.787Z,98938.58
2017-12-14T10:49:12.411Z,98941.34
2017-12-14T10:51:40.011Z,98953.42
2017-12-14T10:54:07.616Z,98954.38
2017-12-14T10:56:35.235Z,98944.41
2017-12-14T10:59:02.868Z,98942.30
2017-12-14T11:01:30.458Z,98925.83
2017-12-14T11:03:58.070Z,98929.81
2017-12-14T11:06:25.678Z,98923.31
2017-12-14T11:08:53.271Z,98936.99
2017-12-14T11:11:20.884Z,98922.12
2017-12-14T11:13:48.504Z,98929.30
2017-12-14T11:16:16.081Z,98919.87
2017-12-14T11:18:43.739Z,98921.44
2017-12-14T11:21:11.342Z,98921.20
2017-12-14T11:23:38.914Z,98934.84
2017-12-14T11:26:06.612Z,98915.36
2017-12-14T11:28:34.206Z,98925.33
2017-12-14T11:31:01.850Z,98916.45
2017-12-14T11:33:29.431Z,98927.18
2017-12-14T11:35:57.061Z,98937.12
2017-12-14T11:38:24.659Z,98931.04
2017-12-14T11:40:52.290Z,98931.77
2017-12-14T11:43:19.880Z,98905.25
2017-12-14T11:45:47.501Z,98907.80
2017-12-14T11:48:15.130Z,98915.75
2017-12-14T11:50:42.763Z,98920.78
2017-12-14T11:53:10.363Z,98911.51
2017-12-14T11:55:37.990Z,98901.72
2017-12-14T11:58:05.614Z,98908.31
2017-12-14T12:00:33.207Z,98906.98
2017-12-14T12:03:00.830Z,98909.23
2017-12-14T12:05:28.442Z,98921.84
2017-12-14T12:07:56.035Z,98903.93
2017-12-14T12:10:23.648Z,98888.16
2017-12-14T12:12:51.211Z,98886.69
2017-12-14T12:15:18.829Z,98881.79
2017-12-14T12:17:46.411Z,98879.38
2017-12-14T12:20:13.995Z,98876.85
2017-12-14T12:22:41.607Z,98868.08
2017-12-14T12:25:09.201Z,98867.70
2017-12-14T12:27:36.779Z,98872.45
2017-12-14T12:30:04.414Z,98861.70
2017-12-14T12:32:31.992Z,98858.77
2017-12-14T12:34:59.623Z,98860.88
2017-12-14T12:37:27.390Z,98865.53
2017-12-14T12:39:55.022Z,98871.20
2017-12-14T12:42:22.590Z,98864.43
2017-12-14T12:44:50.361Z,98871.47
2017-12-14T12:47:17.946Z,98859.38
2017-12-14T12:49:45.566Z,98865.75
2017-12-14T12:52:13.175Z,98863.23
2017-12-14T12:54:40.783Z,98856.70
2017-12-14T12:57:08.362Z,98859.21
2017-12-14T12:59:35.961Z,98859.33
2017-12-14T13:02:03.584Z,98863.44
2017-12-14T13:04:31.202Z,98876.30
2017-12-14T13:06:58.758Z,98863.70
2017-12-14T13:09:26.368Z,98873.13
2017-12-14T13:11:53.941Z,98868.08
2017-12-14T13:14:21.559Z,98876.59
2017-12-14T13:16:49.139Z,98890.28
2017-12-14T13:19:16.787Z,98883.09
2017-12-14T13:21:44.370Z,98869.86
2017-12-14T13:24:11.967Z,98873.03
2017-12-14T13:26:39.525Z,98884.98
2017-12-14T13:29:07.148Z,98883.91
2017-12-14T13:31:34.734Z,98894.13
2017-12-14T13:34:02.365Z,98889.92
2017-12-14T13:36:29.938Z,98883.66
2017-12-14T13:38:57.527Z,98879.95
2017-12-14T13:41:25.127Z,98888.19
2017-12-14T13:43:52.707Z,98876.75
2017-12-14T13:46:20.347Z,98875.96
2017-12-14T13:48:47.917Z,98868.78
2017-12-14T13:51:15.534Z,98863.57
2017-12-14T13:53:43.138Z,98875.89
2017-12-14T13:56:10.736Z,98864.78
2017-12-14T13:58:38.338Z,98863.19
2017-12-14T14:01:05.922Z,98864.00
2017-12-14T14:03:33.517Z,98870.23
2017-12-14T14:06:01.118Z,98861.50
2017-12-14T14:08:28.699Z,98856.59
2017-12-14T14:10:56.379Z,98853.95
2017-12-14T14:13:23.946Z,98859.36
2017-12-14T14:15:51.522Z,98855.28
2017-12-14T14:18:19.137Z,98853.00
2017-12-14T14:20:46.797Z,98850.34
2017-12-14T14:23:14.385Z,98854.86
2017-12-14T14:25:41.954Z,98846.77
2017-12-14T14:28:09.571Z,98846.91
2017-12-14T14:30:37.159Z,98844.66
2017-12-14T14:33:04.890Z,98842.13
2017-12-14T14:35:32.483Z,98837.91
2017-12-14T14:38:00.131Z,98837.09
2017-12-14T14:40:27.714Z,98839.86
2017-12-14T14:42:55.379Z,98839.89
2017-12-14T14:45:22.898Z,98833.91
2017-12-14T14:47:50.635Z,98830.07
2017-12-14T14:50:18.222Z,98823.31
2017-12-14T14:52:45.859Z,98827.57
2017-12-14T14:55:13.970Z,98833.41
2017-12-14T14:57:41.608Z,98839.50
2017-12-14T15:00:09.174Z,98843.48
2017-12-14T15:02:36.824Z,98840.45
2017-12-14T15:05:04.419Z,98837.13
2017-12-14T15:07:32.099Z,98840.70
2017-12-14T15:09:59.701Z,98844.45
2017-12-14T15:12:27.355Z,98837.01
2017-12-14T15:14:54.943Z,98839.28
2017-12-14T15:17:22.612Z,98835.16
2017-12-14T15:19:50.194Z,98831.20
2017-12-14T15:22:17.876Z,98827.50
2017-12-14T15:24:45.487Z,98825.40
2017-12-14T15:27:13.124Z,98819.69
2017-12-14T15:29:40.711Z,98814.39
2017-12-14T15:32:08.382Z,98820.88
2017-12-14T15:34:35.959Z,98819.28
2017-12-14T15:37:03.590Z,98806.16
2017-12-14T15:39:31.202Z,98796.89
2017-12-14T15:41:58.815Z,98801.69
2017-12-14T15:44:26.493Z,98797.86
2017-12-14T15:46:54.101Z,98809.78
2017-12-14T15:49:21.751Z,98812.94
2017-12-14T15:51:49.423Z,98813.34
2017-12-14T15:54:17.031Z,98808.83
2017-12-14T15:56:44.714Z,98809.88
2017-12-14T15:59:12.325Z,98799.02
2017-12-14T16:01:39.934Z,98796.10
2017-12-14T16:04:07.550Z,98796.24
2017-12-14T16:06:35.150Z,98807.39
2017-12-14T16:09:02.750Z,98803.51
2017-12-14T16:11:30.384Z,98798.61
2017-12-14T16:13:58.006Z,98805.80
2017-12-14T16:16:25.670Z,98789.20
2017-12-14T16:18:53.263Z,98788.42
2017-12-14T16:21:20.883Z,98781.92
2017-12-14T16:23:48.642Z,98780.61
2017-12-14T16:26:16.320Z,98771.18
2017-12-14T16:28:43.958Z,98769.72
2017-12-14T16:31:11.613Z,98769.31
2017-12-14T16:33:39.198Z,98768.41
2017-12-14T16:36:06.853Z,98772.92
2017-12-14T16:38:34.468Z,98762.18
2017-12-14T16:41:02.096Z,98744.40
2017-12-14T16:43:29.702Z,98736.73
2017-12-14T16:45:57.326Z,98751.86
2017-12-14T16:48:24.914Z,98738.75
2017-12-14T16:50:52.532Z,98730.95
2017-12-14T16:53:20.137Z,98731.22
2017-12-14T16:55:47.786Z,98722.59
2017-12-14T16:58:15.382Z,98715.60
2017-12-14T17:00:43.025Z,98723.97
2017-12-14T17:03:10.587Z,98716.02
2017-12-14T17:05:38.252Z,98712.29
2017-12-14T17:08:05.851Z,98708.72
2017-12-14T17:10:33.478Z,98709.68
2017-12-14T17:13:01.083Z,98703.29
2017-12-14T17:15:28.717Z,98705.57
2017-12-14T17:17:56.413Z,98702.01
2017-12-14T17:20:24.086Z,98697.22
2017-12-14T17:22:51.770Z,98696.30
2017-12-14T17:25:19.383Z,98695.63
2017-12-14T17:27:46.985Z,98689.80
2017-12-14T17:30:14.633Z,98692.33
2017-12-14T17:32:42.224Z,98687.79
2017-12-14T17:35:09.845Z,98687.28
2017-12-14T17:37:37.447Z,98689.13
2017-12-14T17:40:05.088Z,98685.55
2017-12-14T17:42:32.757Z,98680.89
2017-12-14T17:45:00.403Z,98677.72
2017-12-14T17:47:28.020Z,98670.30
2017-12-14T17:49:55.671Z,98670.58
2017-12-14T17:52:23.262Z,98669.02
2017-12-14T17:54:50.851Z,98670.97
2017-12-14T17:57:18.615Z,98668.17
2017-12-14T17:59:46.327Z,98669.63
2017-12-14T18:02:13.956Z,98659.81
2017-12-14T18:04:41.613Z,98655.43
2017-12-14T18:07:09.229Z,98654.22
2017-12-14T18:09:36.818Z,98644.52
2017-12-14T18:12:04.413Z,98641.75
2017-12-14T18:14:32.134Z,98639.89
2017-12-14T18:16:59.735Z,98640.12
2017-12-14T18:19:27.331Z,98638.52
2017-12-14T18:21:54.964Z,98628.17
2017-12-14T18:24:22.607Z,98628.58
2017-12-14T18:26:50.206Z,98625.80
2017-12-14T18:29:17.859Z,98626.59
2017-12-14T18:31:45.494Z,98626.48
2017-12-14T18:34:13.107Z,98619.95
2017-12-14T18:36:40.713Z,98615.61
2017-12-14T18:39:08.299Z,98607.52
2017-12-14T18:41:37.515Z,98605.52
2017-12-14T18:44:05.139Z,98601.94
2017-12-14T18:46:32.751Z,98596.08
2017-12-14T18:49:00.338Z,98599.00
2017-12-14T18:51:27.928Z,98592.52
2017-12-14T18:53:55.541Z,98600.72
2017-12-14T18:56:23.148Z,98595.69
2017-12-14T18:58:50.767Z,98591.95
2017-12-14T19:01:18.446Z,98584.30
2017-12-14T19:03:46.066Z,98587.08
2017-12-14T19:06:13.660Z,98583.54
2017-12-14T19:08:41.330Z,98579.44
2017-12-14T19:11:08.941Z,98581.81
2017-12-14T19:13:36.552Z,98574.79
2017-12-14T19:16:04.171Z,98582.33
2017-12-14T19:18:31.779Z,98578.61
2017-12-14T19:20:59.374Z,98581.63
2017-12-14T19:23:27.008Z,98577.23
2017-12-14T19:25:54.647Z,98575.25
2017-12-14T19:28:22.295Z,98573.80
2017-12-14T19:30:49.870Z,98569.55
2017-12-14T19:33:17.511Z,98550.85
2017-12-14T19:35:45.090Z,98543.98
2017-12-14T19:38:12.756Z,98545.94
2017-12-14T19:40:40.423Z,98547.55
2017-12-14T19:43:08.046Z,98537.36
2017-12-14T19:45:35.643Z,98536.41
2017-12-14T19:48:03.260Z,98536.27
2017-12-14T19:50:30.896Z,98534.43
2017-12-14T19:52:58.527Z,98538.34
2017-12-14T19:55:26.132Z,98536.53
2017-12-14T19:57:53.741Z,98535.48
2017-12-14T20:00:21.452Z,98532.06
2017-12-14T20:02:49.107Z,98526.31
2017-12-14T20:05:16.721Z,98525.15
2017-12-14T20:07:44.363Z,98528.88
2017-12-14T20:10:12.028Z,98539.88
2017-12-14T20:12:39.634Z,98546.05
2017-12-14T20:15:07.216Z,98539.13
2017-12-14T20:17:34.894Z,98529.48
2017-12-14T20:20:02.503Z,98521.19
2017-12-14T20:22:30.171Z,98518.29
2017-12-14T20:24:57.749Z,98510.37
2017-12-14T20:27:25.383Z,98510.38
2017-12-14T20:29:52.991Z,98513.30
2017-12-14T20:32:20.605Z,98510.75
2017-12-14T20:34:48.289Z,98513.25
2017-12-14T20:37:15.958Z,98505.00
2017-12-14T20:39:43.578Z,98495.82
2017-12-14T20:42:11.263Z,98494.22
2017-12-14T20:44:38.862Z,98497.92
2017-12-14T20:47:06.454Z,98494.50
2017-12-14T20:49:34.197Z,98498.09
2017-12-14T20:52:01.842Z,98490.01
2017-12-14T20:54:29.444Z,98488.78
2017-12-14T20:56:57.028Z,98484.13
2017-12-14T20:59:24.674Z,98485.05
2017-12-14T21:01:52.315Z,98476.41
2017-12-14T21:04:19.915Z,98480.25
2017-12-14T21:06:47.503Z,98480.00
2017-12-14T21:09:15.138Z,98465.97
2017-12-14T21:11:42.727Z,98469.53
2017-12-14T21:14:10.427Z,98463.93
2017-12-14T21:16:38.012Z,98461.80
2017-12-14T21:19:05.603Z,98455.30
2017-12-14T21:21:33.170Z,98447.48
2017-12-14T21:24:00.770Z,98456.09
2017-12-14T21:26:28.375Z,98455.81
2017-12-14T21:28:55.993Z,98463.46
2017-12-14T21:31:23.582Z,98465.17
2017-12-14T21:33:51.214Z,98472.44
2017-12-14T21:36:18.856Z,98467.66
2017-12-14T21:38:46.485Z,98474.84
2017-12-14T21:41:14.072Z,98484.14
2017-12-14T21:43:41.688Z,98491.45
2017-12-14T21:46:09.318Z,98488.82
2017-12-14T21:48:36.900Z,98493.91
2017-12-14T21:51:04.578Z,98501.18
2017-12-14T21:53:32.190Z,98497.54
2017-12-14T21:55:59.795Z,98499.02
2017-12-14T21:58:27.397Z,98499.87
2017-12-14T22:00:55.020Z,98500.81
2017-12-14T22:03:22.732Z,98507.86
2017-12-14T22:05:50.378Z,98501.02
2017-12-14T22:08:17.980Z,98500.37
2017-12-14T22:10:45.558Z,98493.89
2017-12-14T22:13:13.230Z,98497.35
2017-12-14T22:15:40.872Z,98503.30
2017-12-14T22:18:08.443Z,98505.00
2017-12-14T22:20:36.051Z,98498.80
2017-12-14T22:23:03.660Z,98498.91
2017-12-14T22:25:31.298Z,98502.55
2017-12-14T22:27:58.896Z,98506.52
2017-12-14T22:30:26.561Z,98510.15
2017-12-14T22:32:54.147Z,98520.61
2017-12-14T22:35:21.736Z,98514.66
2017-12-14T22:37:49.354Z,98517.31
2017-12-14T22:40:17.000Z,98504.77
2017-12-14T22:42:44.579Z,98503.34
2017-12-14T22:45:12.230Z,98508.03
2017-12-14T22:47:39.847Z,98507.25
2017-12-14T22:50:07.590Z,98518.01
2017-12-14T22:52:35.214Z,98510.61
2017-12-14T22:55:02.885Z,98516.97
2017-12-14T22:57:30.562Z,98512.67
2017-12-14T22:59:58.191Z,98516.50
2017-12-14T23:02:25.866Z,98518.94
2017-12-14T23:04:53.458Z,98520.04
2017-12-14T23:07:21.033Z,98517.63
2017-12-14T23:09:48.657Z,98523.34
2017-12-14T23:12:16.253Z,98523.20
2017-12-14T23:14:43.863Z,98522.56
2017-12-14T23:17:11.439Z,98526.40
2017-12-14T23:19:39.035Z,98523.37
2017-12-14T23:22:06.620Z,98524.59
2017-12-14T23:24:34.220Z,98527.39
2017-12-14T23:27:01.849Z,98525.92
2017-12-14T23:29:29.454Z,98529.47
2017-12-14T23:31:57.192Z,98530.23
2017-12-14T23:34:24.775Z,98528.22
2017-12-14T23:36:52.355Z,98530.11
2017-12-14T23:39:19.969Z,98531.56
2017-12-14T23:41:47.564Z,98521.11
2017-12-14T23:44:15.194Z,98519.51
2017-12-14T23:46:42.807Z,98510.09
2017-12-14T23:49:10.418Z,98524.30
2017-12-14T23:51:37.994Z,98522.98
2017-12-14T23:54:05.654Z,98521.25
2017-12-14T23:56:33.259Z,98526.00
2017-12-14T23:59:00.861Z,98527.33
